createdAt,value
2023-01-17T00:02:17.722Z,18.90
2023-01-17T00:05:03.975Z,15.90
2023-01-17T00:07:49.680Z,12.80
2023-01-17T00:10:26.335Z,12.20
2023-01-17T00:13:02.687Z,14.90
2023-01-17T00:15:30.884Z,10.60
2023-01-17T00:17:58.523Z,10.20
2023-01-17T00:20:46.487Z,11.30
2023-01-17T00:23:37.050Z,10.70
2023-01-17T00:26:17.801Z,13.10
2023-01-17T00:28:45.794Z,10.10
2023-01-17T00:31:14.716Z,13.50
2023-01-17T00:33:41.730Z,13.50
2023-01-17T00:36:10.147Z,13.10
2023-01-17T00:38:38.868Z,15.10
2023-01-17T00:41:12.218Z,15.30
2023-01-17T00:43:57.575Z,21.00
2023-01-17T00:46:43.258Z,21.00
2023-01-17T00:49:29.035Z,21.80
2023-01-17T00:52:15.317Z,20.60
2023-01-17T00:55:01.509Z,20.70
2023-01-17T00:57:47.525Z,19.90
2023-01-17T01:00:35.884Z,23.30
2023-01-17T01:03:26.891Z,19.20
2023-01-17T01:06:12.609Z,20.80
2023-01-17T01:08:58.699Z,19.60
2023-01-17T01:11:44.694Z,19.20
2023-01-17T01:14:30.642Z,25.00
2023-01-17T01:17:18.007Z,19.40
2023-01-17T01:20:03.974Z,24.80
2023-01-17T01:22:49.956Z,24.40
2023-01-17T01:25:36.347Z,17.30
2023-01-17T01:28:29.512Z,13.50
2023-01-17T01:31:18.292Z,16.80
2023-01-17T01:33:45.922Z,17.70
2023-01-17T01:36:13.484Z,18.40
2023-01-17T01:38:40.682Z,16.40
2023-01-17T01:41:07.891Z,15.50
2023-01-17T01:43:40.991Z,12.40
2023-01-17T01:46:12.950Z,15.70
2023-01-17T01:48:49.632Z,17.70
2023-01-17T01:51:21.549Z,14.20
2023-01-17T01:53:52.327Z,12.90
2023-01-17T01:56:23.066Z,17.50
2023-01-17T01:58:52.261Z,18.60
2023-01-17T02:01:19.742Z,13.60
2023-01-17T02:03:49.086Z,14.80
2023-01-17T02:06:35.627Z,18.00
2023-01-17T02:09:10.254Z,13.70
2023-01-17T02:11:39.569Z,12.60
2023-01-17T02:14:13.771Z,13.30
2023-01-17T02:17:02.528Z,11.10
2023-01-17T02:19:44.996Z,11.50
2023-01-17T02:25:11.686Z,13.10
2023-01-17T02:27:44.565Z,22.50
2023-01-17T02:30:23.794Z,33.50
2023-01-17T02:33:02.308Z,35.40
2023-01-17T02:35:34.169Z,32.10
2023-01-17T02:38:36.730Z,26.20
2023-01-17T02:41:07.273Z,24.10
2023-01-17T02:43:36.984Z,18.30
2023-01-17T02:46:04.494Z,19.70
2023-01-17T02:48:34.975Z,17.60
2023-01-17T02:51:38.462Z,14.80
2023-01-17T02:54:27.923Z,10.10
2023-01-17T02:57:06.543Z,10.30
2023-01-17T02:59:51.711Z,12.80
2023-01-17T03:02:50.410Z,10.70
2023-01-17T03:05:28.801Z,11.30
2023-01-17T03:07:57.395Z,12.20
2023-01-17T03:10:24.849Z,11.40
2023-01-17T03:12:57.837Z,12.70
2023-01-17T03:15:25.297Z,11.90
2023-01-17T03:17:57.465Z,10.50
2023-01-17T03:22:51.880Z,11.30
2023-01-17T03:25:19.238Z,10.10
2023-01-17T03:27:46.502Z,12.40
2023-01-17T03:30:14.068Z,10.60
2023-01-17T03:32:41.627Z,13.60
2023-01-17T03:35:09.305Z,11.70
2023-01-17T03:37:36.660Z,17.80
2023-01-17T03:40:04.835Z,16.70
2023-01-17T03:42:33.420Z,14.70
2023-01-17T03:45:00.686Z,17.10
2023-01-17T03:47:28.658Z,13.00
2023-01-17T03:49:55.813Z,13.20
2023-01-17T03:52:22.995Z,12.80
2023-01-17T03:54:50.226Z,12.20
2023-01-17T03:57:17.585Z,12.00
2023-01-17T03:59:45.659Z,10.40
2023-01-17T04:02:13.317Z,9.20
2023-01-17T04:04:40.894Z,11.10
2023-01-17T04:07:08.151Z,11.00
2023-01-17T04:09:35.388Z,11.50
2023-01-17T04:12:03.485Z,13.10
2023-01-17T04:14:30.568Z,10.70
2023-01-17T04:16:57.936Z,11.30
2023-01-17T04:19:25.260Z,10.60
2023-01-17T04:21:52.513Z,10.40
2023-01-17T04:24:19.982Z,13.10
2023-01-17T04:26:47.551Z,14.00
2023-01-17T04:29:14.818Z,11.60
2023-01-17T04:31:42.321Z,10.70
2023-01-17T04:34:09.626Z,9.40
2023-01-17T04:36:37.543Z,10.10
2023-01-17T04:39:04.959Z,12.60
2023-01-17T04:41:33.555Z,9.40
2023-01-17T04:44:02.655Z,8.90
2023-01-17T04:46:30.214Z,9.20
2023-01-17T04:48:57.480Z,8.50
2023-01-17T04:51:25.034Z,10.60
2023-01-17T04:53:52.297Z,10.90
2023-01-17T04:56:19.856Z,9.10
2023-01-17T04:58:47.868Z,6.60
2023-01-17T05:01:15.163Z,10.90
2023-01-17T05:03:42.450Z,7.10
2023-01-17T05:06:10.019Z,6.40
2023-01-17T05:08:37.374Z,8.60
2023-01-17T05:11:04.639Z,9.00
2023-01-17T05:13:32.917Z,6.90
2023-01-17T05:16:00.373Z,9.00
2023-01-17T05:18:27.749Z,23.60
2023-01-17T05:21:00.984Z,16.00
2023-01-17T05:23:28.292Z,16.70
2023-01-17T05:25:55.554Z,19.70
2023-01-17T05:28:23.012Z,10.20
2023-01-17T05:30:50.291Z,6.70
2023-01-17T05:33:18.100Z,9.70
2023-01-17T05:35:45.404Z,9.90
2023-01-17T05:38:12.661Z,11.00
2023-01-17T05:40:39.929Z,6.80
2023-01-17T05:43:08.400Z,9.10
2023-01-17T05:45:36.073Z,8.50
2023-01-17T05:48:04.729Z,7.50
2023-01-17T05:50:34.984Z,5.80
2023-01-17T05:53:09.386Z,8.30
2023-01-17T05:55:37.907Z,6.00
2023-01-17T05:58:06.487Z,6.40
2023-01-17T06:00:34.257Z,5.60
2023-01-17T06:03:03.160Z,7.00
2023-01-17T06:05:31.120Z,5.10
2023-01-17T06:07:59.917Z,6.70
2023-01-17T06:10:29.012Z,6.60
2023-01-17T06:13:10.397Z,8.40
2023-01-17T06:15:38.982Z,8.00
2023-01-17T06:18:10.458Z,8.10
2023-01-17T06:20:39.132Z,7.00
2023-01-17T06:23:09.389Z,5.00
2023-01-17T06:25:48.100Z,8.10
2023-01-17T06:28:17.883Z,11.90
2023-01-17T06:30:45.870Z,7.50
2023-01-17T06:33:19.077Z,7.50
2023-01-17T06:35:49.483Z,5.50
2023-01-17T06:38:18.173Z,6.90
2023-01-17T06:40:46.357Z,8.30
2023-01-17T06:43:13.726Z,12.50
2023-01-17T06:45:41.072Z,6.20
2023-01-17T06:48:09.136Z,6.60
2023-01-17T06:50:37.633Z,5.60
2023-01-17T06:53:06.609Z,5.80
2023-01-17T06:55:39.658Z,16.60
2023-01-17T06:58:09.091Z,18.30
2023-01-17T07:00:37.196Z,19.10
2023-01-17T07:03:15.213Z,13.40
2023-01-17T07:05:42.577Z,12.90
2023-01-17T07:08:09.833Z,10.30
2023-01-17T07:10:37.090Z,7.30
2023-01-17T07:13:04.347Z,11.40
2023-01-17T07:15:33.145Z,9.10
2023-01-17T07:18:02.967Z,9.70
2023-01-17T07:20:30.626Z,9.40
2023-01-17T07:22:58.803Z,7.20
2023-01-17T07:25:27.726Z,7.20
2023-01-17T07:27:57.154Z,8.20
2023-01-17T07:30:24.627Z,9.00
2023-01-17T07:32:52.935Z,7.40
2023-01-17T07:35:20.769Z,6.90
2023-01-17T07:37:50.875Z,9.30
2023-01-17T07:40:19.717Z,10.70
2023-01-17T07:42:47.510Z,16.50
2023-01-17T07:45:16.132Z,48.00
2023-01-17T07:47:45.461Z,18.90
2023-01-17T07:50:13.165Z,15.50
2023-01-17T07:52:41.159Z,16.20
2023-01-17T07:55:09.068Z,28.50
2023-01-17T07:57:36.485Z,21.80
2023-01-17T08:00:05.478Z,18.00
2023-01-17T08:02:39.219Z,12.00
2023-01-17T08:05:06.646Z,10.30
2023-01-17T08:07:34.417Z,10.80
2023-01-17T08:10:02.717Z,15.50
2023-01-17T08:12:30.527Z,7.20
2023-01-17T08:14:57.745Z,8.80
2023-01-17T08:17:24.817Z,7.50
2023-01-17T08:19:52.759Z,8.40
2023-01-17T08:22:20.087Z,13.00
2023-01-17T08:24:48.186Z,13.30
2023-01-17T08:27:15.827Z,11.90
2023-01-17T08:29:47.318Z,9.50
2023-01-17T08:32:16.012Z,11.10
2023-01-17T08:34:43.775Z,22.60
2023-01-17T08:37:11.158Z,10.20
2023-01-17T08:39:38.447Z,18.80
2023-01-17T08:42:05.871Z,12.20
2023-01-17T08:44:33.727Z,18.10
2023-01-17T08:47:01.270Z,15.20
2023-01-17T08:49:28.831Z,15.30
2023-01-17T08:51:56.129Z,14.50
2023-01-17T08:54:23.214Z,18.40
2023-01-17T08:56:52.265Z,15.50
2023-01-17T08:59:19.385Z,12.90
2023-01-17T09:01:47.555Z,16.20
2023-01-17T09:04:15.623Z,14.20
2023-01-17T09:06:47.386Z,19.80
2023-01-17T09:09:18.877Z,11.90
2023-01-17T09:11:46.104Z,11.70
2023-01-17T09:14:13.964Z,11.80
2023-01-17T09:16:41.060Z,12.60
2023-01-17T09:19:08.655Z,11.50
2023-01-17T09:21:36.419Z,10.30
2023-01-17T09:24:03.844Z,13.40
2023-01-17T09:26:31.022Z,12.60
2023-01-17T09:28:59.004Z,14.00
2023-01-17T09:31:26.668Z,13.60
2023-01-17T09:33:55.490Z,14.40
2023-01-17T09:36:23.888Z,12.40
2023-01-17T09:38:57.438Z,13.40
2023-01-17T09:41:43.127Z,10.60
2023-01-17T09:44:33.406Z,11.70
2023-01-17T09:47:11.843Z,17.10
2023-01-17T09:49:42.845Z,15.80
2023-01-17T09:52:22.832Z,17.10
2023-01-17T09:54:51.002Z,12.70
2023-01-17T09:57:44.135Z,18.30
2023-01-17T10:00:35.750Z,14.50
2023-01-17T10:03:40.877Z,11.60
2023-01-17T10:06:13.775Z,23.40
2023-01-17T10:08:57.283Z,20.50
2023-01-17T10:12:02.809Z,10.60
2023-01-17T10:14:48.181Z,9.50
2023-01-17T10:17:30.369Z,11.60
2023-01-17T10:23:07.411Z,9.80
2023-01-17T10:25:43.643Z,7.50
2023-01-17T10:28:24.458Z,7.40
2023-01-17T10:30:57.843Z,9.30
2023-01-17T10:33:29.052Z,6.80
2023-01-17T10:36:20.126Z,6.40
2023-01-17T10:38:54.874Z,5.90
2023-01-17T10:41:33.078Z,6.00
2023-01-17T10:44:12.003Z,7.80
2023-01-17T10:46:54.870Z,6.30
2023-01-17T10:49:24.373Z,7.60
2023-01-17T10:52:10.224Z,6.00
2023-01-17T10:54:56.312Z,7.30
2023-01-17T10:57:27.129Z,7.30
2023-01-17T11:00:01.066Z,8.00
2023-01-17T11:02:39.324Z,12.50
2023-01-17T11:05:29.791Z,12.60
2023-01-17T11:08:05.853Z,12.70
2023-01-17T11:10:56.733Z,17.20
2023-01-17T11:13:33.777Z,19.60
2023-01-17T11:16:05.816Z,10.90
2023-01-17T11:18:37.303Z,11.20
2023-01-17T11:21:22.756Z,12.00
2023-01-17T11:23:54.430Z,10.30
2023-01-17T11:26:30.484Z,12.20
2023-01-17T11:29:30.032Z,13.90
2023-01-17T11:32:16.305Z,16.80
2023-01-17T11:34:43.575Z,15.20
2023-01-17T11:37:20.214Z,12.80
2023-01-17T11:39:50.068Z,11.40
2023-01-17T11:42:34.010Z,12.30
2023-01-17T11:45:28.032Z,18.90
2023-01-17T11:48:12.366Z,12.10
2023-01-17T11:50:43.337Z,15.00
2023-01-17T11:53:21.651Z,13.60
2023-01-17T11:55:57.896Z,13.60
2023-01-17T11:58:28.120Z,12.50
2023-01-17T12:01:33.135Z,13.80
2023-01-17T12:04:08.102Z,8.60
2023-01-17T12:07:06.555Z,10.50
2023-01-17T12:10:06.546Z,14.70
2023-01-17T12:13:34.910Z,17.90
2023-01-17T12:16:28.973Z,21.00
2023-01-17T12:19:03.094Z,21.00
2023-01-17T12:21:57.679Z,20.30
2023-01-17T12:24:42.107Z,11.60
2023-01-17T12:27:18.984Z,17.30
2023-01-17T12:30:01.081Z,10.90
2023-01-17T12:32:38.687Z,10.10
2023-01-17T12:35:16.386Z,9.80
2023-01-17T12:37:52.690Z,7.00
2023-01-17T12:40:46.298Z,7.50
2023-01-17T12:43:26.857Z,9.60
2023-01-17T12:45:54.219Z,10.50
2023-01-17T12:48:23.412Z,8.50
2023-01-17T12:51:38.343Z,11.00
2023-01-17T12:54:21.080Z,10.40
2023-01-17T12:57:04.707Z,15.20
2023-01-17T12:59:40.026Z,9.60
2023-01-17T13:02:36.161Z,9.80
2023-01-17T13:05:15.805Z,10.60
2023-01-17T13:08:03.600Z,7.60
2023-01-17T13:10:44.198Z,7.20
2023-01-17T13:13:30.984Z,8.80
2023-01-17T13:16:07.070Z,8.90
2023-01-17T13:18:37.213Z,10.70
2023-01-17T13:21:29.896Z,10.10
2023-01-17T13:23:58.567Z,8.30
2023-01-17T13:26:50.277Z,6.30
2023-01-17T13:29:34.570Z,8.60
2023-01-17T13:32:14.659Z,11.40
2023-01-17T13:35:23.276Z,14.50
2023-01-17T13:38:08.492Z,24.50
2023-01-17T13:40:58.144Z,32.20
2023-01-17T13:43:38.867Z,20.80
2023-01-17T13:46:06.782Z,32.10
2023-01-17T13:48:37.726Z,24.20
2023-01-17T13:51:05.914Z,16.70
2023-01-17T13:53:39.168Z,13.30
2023-01-17T13:56:27.448Z,13.60
2023-01-17T13:59:03.133Z,8.90
2023-01-17T14:01:38.013Z,11.90
2023-01-17T14:04:08.159Z,6.10
2023-01-17T14:06:36.535Z,9.00
2023-01-17T14:09:16.092Z,9.60
2023-01-17T14:12:13.728Z,8.50
2023-01-17T14:14:49.817Z,7.40
2023-01-17T14:17:25.032Z,8.50
2023-01-17T14:19:55.397Z,7.60
2023-01-17T14:22:25.780Z,6.70
2023-01-17T14:25:18.428Z,8.70
2023-01-17T14:30:33.607Z,20.70
2023-01-17T14:33:00.878Z,25.10
2023-01-17T14:35:34.055Z,22.70
2023-01-17T14:38:05.184Z,24.30
2023-01-17T14:40:37.265Z,23.20
2023-01-17T14:45:41.675Z,23.30
2023-01-17T14:48:19.701Z,23.10
2023-01-17T14:50:49.870Z,22.40
2023-01-17T14:53:20.586Z,23.70
2023-01-17T14:55:51.842Z,25.20
2023-01-17T14:58:21.967Z,36.90
2023-01-17T15:00:56.345Z,33.90
2023-01-17T15:03:24.502Z,24.70
2023-01-17T15:05:54.380Z,21.90
2023-01-17T15:08:25.782Z,30.10
2023-01-17T15:10:59.730Z,31.50
2023-01-17T15:13:43.362Z,33.80
2023-01-17T15:16:27.787Z,33.20
2023-01-17T15:18:57.017Z,34.00
2023-01-17T15:21:40.140Z,35.20
2023-01-17T15:24:34.132Z,25.60
2023-01-17T15:27:02.539Z,17.00
2023-01-17T15:29:35.627Z,14.10
2023-01-17T15:32:05.854Z,16.20
2023-01-17T15:34:44.591Z,13.30
2023-01-17T15:37:35.827Z,19.60
2023-01-17T15:40:18.084Z,22.10
2023-01-17T15:42:51.120Z,21.90
2023-01-17T15:45:21.855Z,31.70
2023-01-17T15:47:49.131Z,26.60
2023-01-17T15:50:24.455Z,16.60
2023-01-17T15:52:55.451Z,20.40
2023-01-17T15:55:29.814Z,20.80
2023-01-17T15:57:57.284Z,24.40
2023-01-17T16:00:25.968Z,25.00
2023-01-17T16:02:55.881Z,19.50
2023-01-17T16:05:30.511Z,17.90
2023-01-17T16:08:01.146Z,19.90
2023-01-17T16:10:35.811Z,17.00
2023-01-17T16:13:09.989Z,18.80
2023-01-17T16:15:38.247Z,19.30
2023-01-17T16:18:08.703Z,13.50
2023-01-17T16:20:41.083Z,18.50
2023-01-17T16:23:11.303Z,12.60
2023-01-17T16:25:38.873Z,9.30
2023-01-17T16:28:06.952Z,17.70
2023-01-17T16:30:34.310Z,11.10
2023-01-17T16:33:02.797Z,11.20
2023-01-17T16:35:33.138Z,7.90
2023-01-17T16:38:03.855Z,7.60
2023-01-17T16:40:38.924Z,9.00
2023-01-17T16:43:07.374Z,14.60
2023-01-17T16:45:43.745Z,18.50
2023-01-17T16:48:13.659Z,25.50
2023-01-17T16:50:47.883Z,34.40
2023-01-17T16:53:23.428Z,26.00
2023-01-17T16:55:57.963Z,16.30
2023-01-17T16:58:25.305Z,23.10
2023-01-17T17:00:54.978Z,11.50
2023-01-17T17:03:23.051Z,8.20
2023-01-17T17:05:59.688Z,8.80
2023-01-17T17:08:30.038Z,8.50
2023-01-17T17:11:14.991Z,8.50
2023-01-17T17:13:44.503Z,8.90
2023-01-17T17:16:19.048Z,9.50
2023-01-17T17:18:54.236Z,9.90
2023-01-17T17:21:21.894Z,8.20
2023-01-17T17:23:58.977Z,8.20
2023-01-17T17:26:31.263Z,6.00
2023-01-17T17:28:59.861Z,5.40
2023-01-17T17:31:28.536Z,6.00
2023-01-17T17:34:01.138Z,6.00
2023-01-17T17:36:30.328Z,8.60
2023-01-17T17:39:02.960Z,11.10
2023-01-17T17:41:33.548Z,11.10
2023-01-17T17:44:03.264Z,10.20
2023-01-17T17:46:33.147Z,6.50
2023-01-17T17:49:01.233Z,4.00
2023-01-17T17:51:36.999Z,5.70
2023-01-17T17:54:07.616Z,6.20
2023-01-17T17:56:36.410Z,7.90
2023-01-17T17:59:05.921Z,7.40
2023-01-17T18:01:34.306Z,6.90
2023-01-17T18:04:04.234Z,8.30
2023-01-17T18:06:34.164Z,5.90
2023-01-17T18:09:03.239Z,6.90
2023-01-17T18:11:31.388Z,5.70
2023-01-17T18:14:03.202Z,7.20
2023-01-17T18:16:36.422Z,6.90
2023-01-17T18:19:04.873Z,10.90
2023-01-17T18:21:38.087Z,9.30
2023-01-17T18:24:06.742Z,5.80
2023-01-17T18:26:38.709Z,3.50
2023-01-17T18:29:08.209Z,4.60
2023-01-17T18:31:36.337Z,3.90
2023-01-17T18:34:09.443Z,5.80
2023-01-17T18:36:37.460Z,5.30
2023-01-17T18:39:12.176Z,5.90
2023-01-17T18:41:39.903Z,4.60
2023-01-17T18:44:07.754Z,5.80
2023-01-17T18:46:36.195Z,7.20
2023-01-17T18:49:04.504Z,10.40
2023-01-17T18:51:34.002Z,9.90
2023-01-17T18:54:06.683Z,7.30
2023-01-17T18:56:35.099Z,3.10
2023-01-17T18:59:06.352Z,4.90
2023-01-17T19:01:35.915Z,3.50
2023-01-17T19:04:05.491Z,4.10
2023-01-17T19:06:39.383Z,2.60
2023-01-17T19:09:08.151Z,4.60
2023-01-17T19:11:36.372Z,3.20
2023-01-17T19:14:04.709Z,5.40
2023-01-17T19:16:38.646Z,4.50
2023-01-17T19:19:10.428Z,4.60
2023-01-17T19:21:38.215Z,7.00
2023-01-17T19:24:06.317Z,6.10
2023-01-17T19:26:33.780Z,6.50
2023-01-17T19:29:03.290Z,10.60
2023-01-17T19:31:34.761Z,9.70
2023-01-17T19:34:02.947Z,10.40
2023-01-17T19:36:35.596Z,7.20
2023-01-17T19:39:06.611Z,4.70
2023-01-17T19:41:37.831Z,4.50
2023-01-17T19:44:07.813Z,3.10
2023-01-17T19:46:36.414Z,2.70
2023-01-17T19:49:06.592Z,2.30
2023-01-17T19:51:35.424Z,4.60
2023-01-17T19:54:06.405Z,2.50
2023-01-17T19:56:34.245Z,3.20
2023-01-17T19:59:02.465Z,3.90
2023-01-17T20:01:33.705Z,2.70
2023-01-17T20:04:03.512Z,3.10
2023-01-17T20:06:34.782Z,2.00
2023-01-17T20:09:05.474Z,2.70
2023-01-17T20:11:32.935Z,1.30
2023-01-17T20:14:00.324Z,2.30
2023-01-17T20:16:30.108Z,3.20
2023-01-17T20:18:58.900Z,2.10
2023-01-17T20:21:27.631Z,2.80
2023-01-17T20:23:57.022Z,2.30
2023-01-17T20:26:30.609Z,1.40
2023-01-17T20:28:57.863Z,1.30
2023-01-17T20:31:25.666Z,1.30
2023-01-17T20:33:54.935Z,1.70
2023-01-17T20:36:24.848Z,1.30
2023-01-17T20:38:53.845Z,1.50
2023-01-17T20:41:23.469Z,1.30
2023-01-17T20:43:56.368Z,1.30
2023-01-17T20:46:26.462Z,1.50
2023-01-17T20:48:57.407Z,1.40
2023-01-17T20:51:26.409Z,1.60
2023-01-17T20:53:56.437Z,1.20
2023-01-17T20:56:24.290Z,1.20
2023-01-17T20:58:52.887Z,1.00
2023-01-17T21:01:23.894Z,2.00
2023-01-17T21:03:53.248Z,2.20
2023-01-17T21:06:23.158Z,1.30
2023-01-17T21:08:51.655Z,1.80
2023-01-17T21:11:22.435Z,1.80
2023-01-17T21:13:50.785Z,1.60
2023-01-17T21:16:20.581Z,1.90
2023-01-17T21:18:49.575Z,1.50
2023-01-17T21:21:21.537Z,2.20
2023-01-17T21:23:50.338Z,1.40
2023-01-17T21:26:19.132Z,2.20
2023-01-17T21:28:48.028Z,2.00
2023-01-17T21:31:24.381Z,2.40
2023-01-17T21:34:04.329Z,1.90
2023-01-17T21:36:38.649Z,3.90
2023-01-17T21:39:11.072Z,3.20
2023-01-17T21:41:40.489Z,3.80
2023-01-17T21:44:12.536Z,2.80
2023-01-17T21:46:40.780Z,2.10
2023-01-17T21:49:11.343Z,3.20
2023-01-17T21:51:55.052Z,4.30
2023-01-17T21:54:53.620Z,4.30
2023-01-17T21:57:40.735Z,4.30
2023-01-17T22:00:16.175Z,5.30
2023-01-17T22:02:47.912Z,3.40
2023-01-17T22:05:16.427Z,3.60
2023-01-17T22:08:04.451Z,4.10
2023-01-17T22:10:32.635Z,4.00
2023-01-17T22:12:59.894Z,2.90
2023-01-17T22:15:26.945Z,3.50
2023-01-17T22:17:54.336Z,1.50
2023-01-17T22:20:21.661Z,4.10
2023-01-17T22:22:49.016Z,4.20
2023-01-17T22:25:16.375Z,3.40
2023-01-17T22:27:44.042Z,3.40
2023-01-17T22:30:12.630Z,3.50
2023-01-17T22:32:40.709Z,1.80
2023-01-17T22:35:09.091Z,3.50
2023-01-17T22:37:36.260Z,3.90
2023-01-17T22:40:05.427Z,3.60
2023-01-17T22:42:33.944Z,2.50
2023-01-17T22:45:01.206Z,1.90
2023-01-17T22:47:28.346Z,4.30
2023-01-17T22:49:55.706Z,3.10
2023-01-17T22:52:22.963Z,1.60
2023-01-17T22:54:50.428Z,1.80
2023-01-17T22:57:17.700Z,1.60
2023-01-17T22:59:44.944Z,2.30
2023-01-17T23:02:12.304Z,1.70
2023-01-17T23:04:39.314Z,1.60
2023-01-17T23:07:06.409Z,1.60
2023-01-17T23:09:33.566Z,1.90
2023-01-17T23:12:00.719Z,1.70
2023-01-17T23:14:53.170Z,1.90
2023-01-17T23:17:41.078Z,2.00
2023-01-17T23:20:10.970Z,1.80
2023-01-17T23:22:38.676Z,1.80
2023-01-17T23:25:10.474Z,3.60
2023-01-17T23:28:00.836Z,2.10
2023-01-17T23:30:41.444Z,2.00
2023-01-17T23:33:16.718Z,1.90
2023-01-17T23:35:45.916Z,1.80
2023-01-17T23:38:30.264Z,1.50
2023-01-17T23:41:27.405Z,2.40
2023-01-17T23:43:57.237Z,1.60
2023-01-17T23:46:26.058Z,1.90
2023-01-17T23:48:54.495Z,2.00
2023-01-17T23:51:21.654Z,3.20
2023-01-17T23:53:50.651Z,1.80
2023-01-17T23:56:24.080Z,2.50
2023-01-17T23:58:51.208Z,1.60
